Time,TemperatureF,DewpointF,PressureIn,WindDirection,WindDirectionDegrees,WindSpeedMPH,WindSpeedGustMPH,Humidity,HourlyPrecipIn,Conditions,Clouds,dailyrainin,SoftwareType,DateUTC
2013-12-27 00:02:00,28.2,9.6,29.41,West,275,0.0,0.0,45,0.00,,,0.00,VWS V14.01,2013-12-27 06:02:00,
2013-12-27 00:07:00,28.0,9.4,29.41,West,275,0.0,0.0,45,0.00,,,0.00,VWS V14.01,2013-12-27 06:07:00,
2013-12-27 00:12:00,28.0,9.4,29.41,West,275,0.0,0.0,45,0.00,,,0.00,VWS V14.01,2013-12-27 06:12:00,
2013-12-27 00:17:00,28.0,9.4,29.41,West,275,0.0,0.0,45,0.00,,,0.00,VWS V14.01,2013-12-27 06:17:00,
2013-12-27 00:22:00,28.0,9.4,29.41,West,275,0.0,0.0,45,0.00,,,0.00,VWS V14.01,2013-12-27 06:22:00,
2013-12-27 00:27:00,27.5,8.5,29.41,West,275,0.0,0.0,44,0.00,,,0.00,VWS V14.01,2013-12-27 06:27:00,
2013-12-27 00:32:00,27.5,8.5,29.41,West,275,0.0,0.0,44,0.00,,,0.00,VWS V14.01,2013-12-27 06:32:00,
2013-12-27 00:37:00,27.1,8.1,29.41,West,275,0.0,0.0,44,0.00,,,0.00,VWS V14.01,2013-12-27 06:37:00,
2013-12-27 00:42:00,26.6,7.6,29.41,West,275,0.0,0.0,44,0.00,,,0.00,VWS V14.01,2013-12-27 06:42:00,
2013-12-27 00:47:00,26.2,7.3,29.41,West,275,0.0,0.0,44,0.00,,,0.00,VWS V14.01,2013-12-27 06:47:00,
2013-12-27 00:52:00,25.9,7.0,29.41,West,275,0.0,0.0,44,0.00,,,0.00,VWS V14.01,2013-12-27 06:52:00,
2013-12-27 00:57:00,25.9,7.0,29.41,West,275,0.0,0.0,44,0.00,,,0.00,VWS V14.01,2013-12-27 06:57:00,
2013-12-27 01:02:00,25.2,6.3,29.41,West,275,0.0,0.0,44,0.00,,,0.00,VWS V14.01,2013-12-27 07:02:00,
2013-12-27 01:07:00,25.2,6.3,29.41,West,275,0.0,0.0,44,0.00,,,0.00,VWS V14.01,2013-12-27 07:07:00,
2013-12-27 01:12:00,24.1,5.3,29.41,West,275,0.0,0.0,44,0.00,,,0.00,VWS V14.01,2013-12-27 07:12:00,
2013-12-27 01:17:00,23.9,5.2,29.41,West,275,0.0,0.0,44,0.00,,,0.00,VWS V14.01,2013-12-27 07:17:00,
2013-12-27 01:22:00,23.9,5.2,29.41,West,275,0.0,0.0,44,0.00,,,0.00,VWS V14.01,2013-12-27 07:22:00,
2013-12-27 01:27:00,23.9,5.2,29.41,West,275,0.0,0.0,44,0.00,,,0.00,VWS V14.01,2013-12-27 07:27:00,
2013-12-27 01:32:00,23.9,5.2,29.41,West,275,0.0,0.0,44,0.00,,,0.00,VWS V14.01,2013-12-27 07:32:00,
2013-12-27 01:37:00,23.5,4.8,29.41,West,275,0.0,0.0,44,0.00,,,0.00,VWS V14.01,2013-12-27 07:37:00,
2013-12-27 01:42:00,23.5,4.8,29.41,West,275,0.0,0.0,44,0.00,,,0.00,VWS V14.01,2013-12-27 07:42:00,
2013-12-27 01:46:00,23.5,4.8,29.41,West,275,0.0,0.0,44,0.00,,,0.00,VWS V14.01,2013-12-27 07:46:00,
2013-12-27 01:51:00,21.7,3.2,29.41,West,275,0.0,0.0,44,0.00,,,0.00,VWS V14.01,2013-12-27 07:51:00,
2013-12-27 01:56:00,21.7,3.2,29.41,West,275,0.0,0.0,44,0.00,,,0.00,VWS V14.01,2013-12-27 07:56:00,
2013-12-27 02:01:00,21.0,2.5,29.41,West,275,0.0,0.0,44,0.00,,,0.00,VWS V14.01,2013-12-27 08:01:00,
2013-12-27 02:06:00,20.5,2.5,29.44,West,275,0.0,0.0,45,0.00,,,0.00,VWS V14.01,2013-12-27 08:06:00,
2013-12-27 02:11:00,20.5,2.5,29.44,West,275,0.0,0.0,45,0.00,,,0.00,VWS V14.01,2013-12-27 08:11:00,
2013-12-27 02:16:00,20.3,2.4,29.44,West,275,0.0,0.0,45,0.00,,,0.00,VWS V14.01,2013-12-27 08:16:00,
2013-12-27 02:21:00,20.3,2.4,29.44,West,275,0.0,0.0,45,0.00,,,0.00,VWS V14.01,2013-12-27 08:21:00,
2013-12-27 02:26:00,20.3,2.4,29.44,West,275,0.0,0.0,45,0.00,,,0.00,VWS V14.01,2013-12-27 08:26:00,
2013-12-27 02:31:00,20.3,2.4,29.44,West,275,0.0,0.0,45,0.00,,,0.00,VWS V14.01,2013-12-27 08:31:00,
2013-12-27 02:36:00,20.1,2.2,29.44,West,275,0.0,0.0,45,0.00,,,0.00,VWS V14.01,2013-12-27 08:36:00,
2013-12-27 02:41:00,20.1,2.2,29.44,West,275,0.0,0.0,45,0.00,,,0.00,VWS V14.01,2013-12-27 08:41:00,
2013-12-27 02:46:00,20.1,2.2,29.44,West,275,0.0,0.0,45,0.00,,,0.00,VWS V14.01,2013-12-27 08:46:00,
2013-12-27 02:51:00,20.1,2.2,29.44,West,275,0.0,0.0,45,0.00,,,0.00,VWS V14.01,2013-12-27 08:51:00,
2013-12-27 02:56:00,19.0,1.7,29.44,West,275,0.0,0.0,46,0.00,,,0.00,VWS V14.01,2013-12-27 08:56:00,
2013-12-27 03:01:00,18.7,1.4,29.44,West,275,0.0,0.0,46,0.00,,,0.00,VWS V14.01,2013-12-27 09:01:00,
2013-12-27 03:06:00,18.7,1.4,29.44,West,275,0.0,0.0,46,0.00,,,0.00,VWS V14.01,2013-12-27 09:06:00,
2013-12-27 03:11:00,18.7,1.4,29.44,West,275,0.0,0.0,46,0.00,,,0.00,VWS V14.01,2013-12-27 09:11:00,
2013-12-27 03:16:00,17.8,0.1,29.44,West,275,0.0,0.0,45,0.00,,,0.00,VWS V14.01,2013-12-27 09:16:00,
2013-12-27 03:21:00,17.4,0.2,29.44,West,275,0.0,0.0,46,0.00,,,0.00,VWS V14.01,2013-12-27 09:21:00,
2013-12-27 03:26:00,16.9,-0.3,29.44,West,275,0.0,0.0,46,0.00,,,0.00,VWS V14.01,2013-12-27 09:26:00,
2013-12-27 03:31:00,16.9,-0.3,29.44,West,275,0.0,0.0,46,0.00,,,0.00,VWS V14.01,2013-12-27 09:31:00,
2013-12-27 03:36:00,16.7,-0.5,29.44,West,275,0.0,0.0,46,0.00,,,0.00,VWS V14.01,2013-12-27 09:36:00,
2013-12-27 03:41:00,16.7,-0.5,29.44,West,275,0.0,0.0,46,0.00,,,0.00,VWS V14.01,2013-12-27 09:41:00,
2013-12-27 03:46:00,16.5,-0.6,29.44,West,275,0.0,0.0,46,0.00,,,0.00,VWS V14.01,2013-12-27 09:46:00,
2013-12-27 03:51:00,16.5,-0.6,29.44,West,275,0.0,0.0,46,0.00,,,0.00,VWS V14.01,2013-12-27 09:51:00,
2013-12-27 03:56:00,16.5,-0.6,29.44,West,275,0.0,0.0,46,0.00,,,0.00,VWS V14.01,2013-12-27 09:56:00,
2013-12-27 04:01:00,16.0,-1.1,29.44,West,275,0.0,0.0,46,0.00,,,0.00,VWS V14.01,2013-12-27 10:01:00,
2013-12-27 04:06:00,15.6,-1.0,29.41,West,275,0.0,0.0,47,0.00,,,0.00,VWS V14.01,2013-12-27 10:06:00,
2013-12-27 04:11:00,15.4,-1.2,29.41,West,275,0.0,0.0,47,0.00,,,0.00,VWS V14.01,2013-12-27 10:11:00,
2013-12-27 04:16:00,15.4,-1.2,29.41,West,275,0.0,0.0,47,0.00,,,0.00,VWS V14.01,2013-12-27 10:16:00,
2013-12-27 04:21:00,15.4,-1.2,29.41,West,275,0.0,0.0,47,0.00,,,0.00,VWS V14.01,2013-12-27 10:21:00,
2013-12-27 04:26:00,15.4,-1.2,29.41,West,275,0.0,0.0,47,0.00,,,0.00,VWS V14.01,2013-12-27 10:26:00,
2013-12-27 04:31:00,15.1,-1.5,29.44,West,275,0.0,0.0,47,0.00,,,0.00,VWS V14.01,2013-12-27 10:31:00,
2013-12-27 04:36:00,15.1,-1.5,29.41,West,275,0.0,0.0,47,0.00,,,0.00,VWS V14.01,2013-12-27 10:36:00,
2013-12-27 04:41:00,15.1,-1.5,29.41,West,275,0.0,0.0,47,0.00,,,0.00,VWS V14.01,2013-12-27 10:41:00,
2013-12-27 04:46:00,15.1,-1.5,29.41,West,275,0.0,0.0,47,0.00,,,0.00,VWS V14.01,2013-12-27 10:46:00,
2013-12-27 04:51:00,14.7,-1.8,29.44,West,275,0.0,0.0,47,0.00,,,0.00,VWS V14.01,2013-12-27 10:51:00,
2013-12-27 04:56:00,14.7,-1.8,29.44,West,275,0.0,0.0,47,0.00,,,0.00,VWS V14.01,2013-12-27 10:56:00,
2013-12-27 05:01:00,14.5,-2.0,29.44,West,275,0.0,0.0,47,0.00,,,0.00,VWS V14.01,2013-12-27 11:01:00,
2013-12-27 05:06:00,14.5,-2.0,29.44,West,275,0.0,0.0,47,0.00,,,0.00,VWS V14.01,2013-12-27 11:06:00,
2013-12-27 05:11:00,14.2,-2.3,29.44,West,275,0.0,0.0,47,0.00,,,0.00,VWS V14.01,2013-12-27 11:11:00,
2013-12-27 05:16:00,14.2,-2.3,29.44,West,275,0.0,0.0,47,0.00,,,0.00,VWS V14.01,2013-12-27 11:16:00,
2013-12-27 05:21:00,14.2,-2.3,29.44,West,275,0.0,0.0,47,0.00,,,0.00,VWS V14.01,2013-12-27 11:21:00,
2013-12-27 05:26:00,14.2,-2.3,29.44,West,275,0.0,0.0,47,0.00,,,0.00,VWS V14.01,2013-12-27 11:26:00,
2013-12-27 05:31:00,13.8,-2.2,29.44,West,275,0.0,0.0,48,0.00,,,0.00,VWS V14.01,2013-12-27 11:31:00,
2013-12-27 05:36:00,13.8,-2.2,29.44,West,275,0.0,0.0,48,0.00,,,0.00,VWS V14.01,2013-12-27 11:36:00,
2013-12-27 05:41:00,14.0,-2.1,29.44,West,275,0.0,0.0,48,0.00,,,0.00,VWS V14.01,2013-12-27 11:41:00,
2013-12-27 05:46:00,13.8,-2.2,29.44,West,275,0.0,0.0,48,0.00,,,0.00,VWS V14.01,2013-12-27 11:46:00,
2013-12-27 05:51:00,13.6,-2.4,29.44,West,275,0.0,0.0,48,0.00,,,0.00,VWS V14.01,2013-12-27 11:51:00,
2013-12-27 05:56:00,13.6,-2.4,29.44,West,275,0.0,0.0,48,0.00,,,0.00,VWS V14.01,2013-12-27 11:56:00,
2013-12-27 06:01:00,13.8,-2.2,29.44,West,275,0.0,0.0,48,0.00,,,0.00,VWS V14.01,2013-12-27 12:01:00,
2013-12-27 06:06:00,13.8,-2.2,29.44,West,275,0.0,0.0,48,0.00,,,0.00,VWS V14.01,2013-12-27 12:06:00,
2013-12-27 06:11:00,13.8,-2.2,29.44,West,275,0.0,0.0,48,0.00,,,0.00,VWS V14.01,2013-12-27 12:11:00,
2013-12-27 06:16:00,13.5,-2.6,29.44,West,275,0.0,0.0,48,0.00,,,0.00,VWS V14.01,2013-12-27 12:16:00,
2013-12-27 06:21:00,13.3,-2.7,29.44,West,275,0.0,0.0,48,0.00,,,0.00,VWS V14.01,2013-12-27 12:21:00,
2013-12-27 06:26:00,13.3,-2.7,29.44,West,275,0.0,0.0,48,0.00,,,0.00,VWS V14.01,2013-12-27 12:26:00,
2013-12-27 06:31:00,13.3,-2.7,29.44,West,275,0.0,0.0,48,0.00,,,0.00,VWS V14.01,2013-12-27 12:31:00,
2013-12-27 06:36:00,13.5,-2.6,29.44,West,275,0.0,0.0,48,0.00,,,0.00,VWS V14.01,2013-12-27 12:36:00,
2013-12-27 06:41:00,13.3,-2.7,29.44,West,275,0.0,0.0,48,0.00,,,0.00,VWS V14.01,2013-12-27 12:41:00,
2013-12-27 06:46:00,13.3,-2.7,29.44,West,275,0.0,0.0,48,0.00,,,0.00,VWS V14.01,2013-12-27 12:46:00,
2013-12-27 06:51:00,13.3,-2.7,29.44,West,275,0.0,0.0,48,0.00,,,0.00,VWS V14.01,2013-12-27 12:51:00,
2013-12-27 06:56:00,13.3,-2.7,29.44,West,275,0.0,0.0,48,0.00,,,0.00,VWS V14.01,2013-12-27 12:56:00,
2013-12-27 07:01:00,13.1,-2.9,29.44,West,275,0.0,0.0,48,0.00,,,0.00,VWS V14.01,2013-12-27 13:01:00,
2013-12-27 07:06:00,13.1,-2.9,29.44,West,275,0.0,0.0,48,0.00,,,0.00,VWS V14.01,2013-12-27 13:06:00,
2013-12-27 07:11:00,13.1,-2.9,29.44,West,275,0.0,0.0,48,0.00,,,0.00,VWS V14.01,2013-12-27 13:11:00,
2013-12-27 07:16:00,12.9,-3.1,29.44,West,275,0.0,0.0,48,0.00,,,0.00,VWS V14.01,2013-12-27 13:16:00,
2013-12-27 07:21:00,12.9,-3.1,29.44,West,275,0.0,0.0,48,0.00,,,0.00,VWS V14.01,2013-12-27 13:21:00,
2013-12-27 07:25:00,12.9,-3.1,29.44,West,275,0.0,0.0,48,0.00,,,0.00,VWS V14.01,2013-12-27 13:25:00,
2013-12-27 07:30:00,12.9,-3.1,29.44,West,275,0.0,0.0,48,0.00,,,0.00,VWS V14.01,2013-12-27 13:30:00,
2013-12-27 07:35:00,12.9,-3.1,29.44,West,275,0.0,0.0,48,0.00,,,0.00,VWS V14.01,2013-12-27 13:35:00,
2013-12-27 07:40:00,12.9,-3.1,29.44,West,275,0.0,0.0,48,0.00,,,0.00,VWS V14.01,2013-12-27 13:40:00,
2013-12-27 07:45:00,12.9,-3.1,29.44,West,275,0.0,0.0,48,0.00,,,0.00,VWS V14.01,2013-12-27 13:45:00,
2013-12-27 07:50:00,12.9,-3.1,29.44,West,275,0.0,0.0,48,0.00,,,0.00,VWS V14.01,2013-12-27 13:50:00,
2013-12-27 07:55:00,12.9,-3.1,29.41,West,275,0.0,0.0,48,0.00,,,0.00,VWS V14.01,2013-12-27 13:55:00,
2013-12-27 08:00:00,13.3,-2.7,29.41,West,275,0.0,0.0,48,0.00,,,0.00,VWS V14.01,2013-12-27 14:00:00,
2013-12-27 08:05:00,13.3,-2.7,29.41,West,275,0.0,0.0,48,0.00,,,0.00,VWS V14.01,2013-12-27 14:05:00,
2013-12-27 08:10:00,13.5,-2.6,29.41,West,275,0.0,0.0,48,0.00,,,0.00,VWS V14.01,2013-12-27 14:10:00,
2013-12-27 08:15:00,13.5,-2.6,29.41,West,275,0.0,0.0,48,0.00,,,0.00,VWS V14.01,2013-12-27 14:15:00,
2013-12-27 08:20:00,14.2,-0.6,29.44,West,275,0.0,0.0,51,0.00,,,0.00,VWS V14.01,2013-12-27 14:20:00,
2013-12-27 08:25:00,14.5,0.1,29.44,West,275,0.0,0.0,52,0.00,,,0.00,VWS V14.01,2013-12-27 14:25:00,
2013-12-27 08:30:00,14.9,0.5,29.44,West,275,0.0,0.0,52,0.00,,,0.00,VWS V14.01,2013-12-27 14:30:00,
2013-12-27 08:35:00,15.4,1.0,29.44,West,275,0.0,0.0,52,0.00,,,0.00,VWS V14.01,2013-12-27 14:35:00,
2013-12-27 08:40:00,15.4,1.0,29.44,West,275,0.0,0.0,52,0.00,,,0.00,VWS V14.01,2013-12-27 14:40:00,
2013-12-27 08:45:00,16.7,2.5,29.41,West,275,0.0,0.0,53,0.00,,,0.00,VWS V14.01,2013-12-27 14:45:00,
2013-12-27 08:50:00,17.6,3.8,29.41,West,275,0.0,0.0,54,0.00,,,0.00,VWS V14.01,2013-12-27 14:50:00,
2013-12-27 08:55:00,18.5,4.6,29.41,West,275,0.0,0.0,54,0.00,,,0.00,VWS V14.01,2013-12-27 14:55:00,
2013-12-27 09:00:00,19.6,5.7,29.41,West,275,0.0,0.0,54,0.00,,,0.00,VWS V14.01,2013-12-27 15:00:00,
2013-12-27 09:05:00,19.6,5.7,29.41,West,275,0.0,0.0,54,0.00,,,0.00,VWS V14.01,2013-12-27 15:05:00,
2013-12-27 09:10:00,21.2,7.2,29.44,West,275,0.0,0.0,54,0.00,,,0.00,VWS V14.01,2013-12-27 15:10:00,
2013-12-27 09:15:00,21.7,7.7,29.44,West,275,0.0,0.0,54,0.00,,,0.00,VWS V14.01,2013-12-27 15:15:00,
2013-12-27 09:20:00,23.0,8.9,29.44,West,275,0.0,0.0,54,0.00,,,0.00,VWS V14.01,2013-12-27 15:20:00,
2013-12-27 09:25:00,24.8,10.5,29.44,South,179,0.0,0.0,54,0.00,,,0.00,VWS V14.01,2013-12-27 15:25:00,
2013-12-27 09:30:00,25.3,11.0,29.41,South,176,2.2,2.2,54,0.00,,,0.00,VWS V14.01,2013-12-27 15:30:00,
2013-12-27 09:35:00,27.0,12.1,29.41,South,176,2.2,2.2,53,0.00,,,0.00,VWS V14.01,2013-12-27 15:35:00,
2013-12-27 09:40:00,27.0,12.1,29.41,South,185,2.7,2.7,53,0.00,,,0.00,VWS V14.01,2013-12-27 15:40:00,
2013-12-27 09:45:00,30.2,14.7,29.41,SSW,208,0.0,2.7,52,0.00,,,0.00,VWS V14.01,2013-12-27 15:45:00,
2013-12-27 09:50:00,31.6,16.0,29.41,SSW,194,0.0,0.0,52,0.00,,,0.00,VWS V14.01,2013-12-27 15:50:00,
2013-12-27 09:55:00,32.4,15.8,29.41,South,182,2.7,2.7,50,0.00,,,0.00,VWS V14.01,2013-12-27 15:55:00,
2013-12-27 10:00:00,34.5,15.4,29.41,WSW,241,0.0,4.0,45,0.00,,,0.00,VWS V14.01,2013-12-27 16:00:00,
2013-12-27 10:05:00,34.9,15.2,29.41,WSW,239,0.0,0.0,44,0.00,,,0.00,VWS V14.01,2013-12-27 16:05:00,
2013-12-27 10:10:00,36.0,14.6,29.41,South,178,2.7,2.7,41,0.00,,,0.00,VWS V14.01,2013-12-27 16:10:00,
2013-12-27 10:15:00,36.5,13.3,29.41,South,182,4.9,4.9,38,0.00,,,0.00,VWS V14.01,2013-12-27 16:15:00,
2013-12-27 10:20:00,37.0,13.2,29.41,South,182,4.9,4.9,37,0.00,,,0.00,VWS V14.01,2013-12-27 16:20:00,
2013-12-27 10:25:00,37.6,11.8,29.41,South,186,4.0,4.9,34,0.00,,,0.00,VWS V14.01,2013-12-27 16:25:00,
2013-12-27 10:30:00,37.8,11.9,29.41,South,186,4.0,4.0,34,0.00,,,0.00,VWS V14.01,2013-12-27 16:30:00,
2013-12-27 10:35:00,39.0,13.0,29.41,South,173,4.9,4.9,34,0.00,,,0.00,VWS V14.01,2013-12-27 16:35:00,
2013-12-27 10:40:00,39.0,13.0,29.41,South,173,4.9,4.9,34,0.00,,,0.00,VWS V14.01,2013-12-27 16:40:00,
2013-12-27 10:45:00,40.3,12.8,29.41,South,181,3.1,3.1,32,0.00,,,0.00,VWS V14.01,2013-12-27 16:45:00,
2013-12-27 10:50:00,40.3,12.8,29.38,South,187,5.8,5.8,32,0.00,,,0.00,VWS V14.01,2013-12-27 16:50:00,
2013-12-27 10:55:00,41.0,12.7,29.38,South,187,5.8,5.8,31,0.00,,,0.00,VWS V14.01,2013-12-27 16:55:00,
2013-12-27 11:00:00,41.9,13.5,29.38,South,171,5.4,7.6,31,0.00,,,0.00,VWS V14.01,2013-12-27 17:00:00,
2013-12-27 11:05:00,42.1,12.9,29.38,South,171,5.4,5.4,30,0.00,,,0.00,VWS V14.01,2013-12-27 17:05:00,
2013-12-27 11:10:00,42.6,13.4,29.38,SSW,210,3.1,5.4,30,0.00,,,0.00,VWS V14.01,2013-12-27 17:10:00,
2013-12-27 11:15:00,43.2,13.1,29.38,South,171,5.8,6.3,29,0.00,,,0.00,VWS V14.01,2013-12-27 17:15:00,
2013-12-27 11:20:00,43.2,13.1,29.38,South,190,5.8,5.8,29,0.00,,,0.00,VWS V14.01,2013-12-27 17:20:00,
2013-12-27 11:25:00,43.0,12.9,29.38,WNW,298,5.8,8.1,29,0.00,,,0.00,VWS V14.01,2013-12-27 17:25:00,
2013-12-27 11:30:00,42.8,12.8,29.38,SSW,206,5.8,5.8,29,0.00,,,0.00,VWS V14.01,2013-12-27 17:30:00,
2013-12-27 11:35:00,43.3,13.2,29.38,SSW,207,2.7,5.8,29,0.00,,,0.00,VWS V14.01,2013-12-27 17:35:00,
2013-12-27 11:40:00,44.2,14.0,29.38,SSW,207,2.7,2.7,29,0.00,,,0.00,VWS V14.01,2013-12-27 17:40:00,
2013-12-27 11:45:00,44.8,14.5,29.38,South,184,5.8,5.8,29,0.00,,,0.00,VWS V14.01,2013-12-27 17:45:00,
2013-12-27 11:50:00,44.8,14.5,29.35,WSW,246,4.9,5.8,29,0.00,,,0.00,VWS V14.01,2013-12-27 17:50:00,
2013-12-27 11:55:00,46.4,15.1,29.35,South,187,3.6,4.9,28,0.00,,,0.00,VWS V14.01,2013-12-27 17:55:00,
2013-12-27 12:00:00,46.8,15.4,29.35,SSW,210,5.4,5.8,28,0.00,,,0.00,VWS V14.01,2013-12-27 18:00:00,
2013-12-27 12:05:00,46.8,15.4,29.35,SSW,192,7.6,7.6,28,0.00,,,0.00,VWS V14.01,2013-12-27 18:05:00,
2013-12-27 12:10:00,47.3,15.9,29.35,South,191,3.6,7.6,28,0.00,,,0.00,VWS V14.01,2013-12-27 18:10:00,
2013-12-27 12:15:00,47.3,15.9,29.35,South,184,3.1,6.3,28,0.00,,,0.00,VWS V14.01,2013-12-27 18:15:00,
2013-12-27 12:20:00,47.3,15.9,29.35,SSW,210,5.8,5.8,28,0.00,,,0.00,VWS V14.01,2013-12-27 18:20:00,
2013-12-27 12:25:00,47.5,16.0,29.35,SSW,193,6.3,6.3,28,0.00,,,0.00,VWS V14.01,2013-12-27 18:25:00,
2013-12-27 12:30:00,47.7,16.2,29.35,SW,236,5.4,6.3,28,0.00,,,0.00,VWS V14.01,2013-12-27 18:30:00,
2013-12-27 12:35:00,47.5,16.0,29.35,SSE,159,5.4,6.3,28,0.00,,,0.00,VWS V14.01,2013-12-27 18:35:00,
2013-12-27 12:40:00,47.5,16.0,29.35,West,275,3.6,5.4,28,0.00,,,0.00,VWS V14.01,2013-12-27 18:40:00,
2013-12-27 12:45:00,47.5,15.2,29.35,SW,225,4.0,5.4,27,0.00,,,0.00,VWS V14.01,2013-12-27 18:45:00,
2013-12-27 12:50:00,47.5,15.2,29.35,South,177,3.6,4.0,27,0.00,,,0.00,VWS V14.01,2013-12-27 18:50:00,
2013-12-27 12:55:00,47.5,15.2,29.32,SSW,196,2.7,8.7,27,0.00,,,0.00,VWS V14.01,2013-12-27 18:55:00,
2013-12-27 13:00:00,47.5,15.2,29.32,South,174,5.8,5.8,27,0.00,,,0.00,VWS V14.01,2013-12-27 19:00:00,
2013-12-27 13:05:00,47.3,15.0,29.32,SSW,195,4.0,5.8,27,0.00,,,0.00,VWS V14.01,2013-12-27 19:05:00,
2013-12-27 13:10:00,47.5,15.2,29.32,SSW,211,5.4,8.3,27,0.00,,,0.00,VWS V14.01,2013-12-27 19:10:00,
2013-12-27 13:15:00,47.5,15.2,29.32,West,268,5.8,7.6,27,0.00,,,0.00,VWS V14.01,2013-12-27 19:15:00,
2013-12-27 13:20:00,47.7,15.3,29.32,South,186,4.9,5.8,27,0.00,,,0.00,VWS V14.01,2013-12-27 19:20:00,
2013-12-27 13:25:00,47.7,15.3,29.32,South,169,8.7,8.7,27,0.00,,,0.00,VWS V14.01,2013-12-27 19:25:00,
2013-12-27 13:30:00,47.7,15.3,29.32,South,188,5.8,5.8,27,0.00,,,0.00,VWS V14.01,2013-12-27 19:30:00,
2013-12-27 13:35:00,47.8,15.5,29.32,South,178,3.1,5.8,27,0.00,,,0.00,VWS V14.01,2013-12-27 19:35:00,
2013-12-27 13:40:00,47.8,15.5,29.29,South,177,4.9,4.9,27,0.00,,,0.00,VWS V14.01,2013-12-27 19:40:00,
2013-12-27 13:45:00,48.0,15.6,29.29,WSW,242,2.2,6.3,27,0.00,,,0.00,VWS V14.01,2013-12-27 19:45:00,
2013-12-27 13:50:00,48.0,15.6,29.29,SW,220,7.6,7.6,27,0.00,,,0.00,VWS V14.01,2013-12-27 19:50:00,
2013-12-27 13:55:00,47.8,15.5,29.29,South,179,4.9,7.6,27,0.00,,,0.00,VWS V14.01,2013-12-27 19:55:00,
2013-12-27 14:00:00,47.8,15.5,29.29,South,185,4.0,4.9,27,0.00,,,0.00,VWS V14.01,2013-12-27 20:00:00,
2013-12-27 14:05:00,47.5,15.2,29.29,SSW,194,3.6,4.0,27,0.00,,,0.00,VWS V14.01,2013-12-27 20:05:00,
2013-12-27 14:10:00,47.3,15.0,29.29,South,171,4.0,5.8,27,0.00,,,0.00,VWS V14.01,2013-12-27 20:10:00,
2013-12-27 14:15:00,47.5,15.2,29.29,SW,235,4.9,4.9,27,0.00,,,0.00,VWS V14.01,2013-12-27 20:15:00,
2013-12-27 14:20:00,47.7,15.3,29.29,South,178,5.8,5.8,27,0.00,,,0.00,VWS V14.01,2013-12-27 20:20:00,
2013-12-27 14:25:00,47.7,15.3,29.29,South,176,6.3,6.3,27,0.00,,,0.00,VWS V14.01,2013-12-27 20:25:00,
2013-12-27 14:30:00,48.2,15.8,29.29,South,181,3.1,6.3,27,0.00,,,0.00,VWS V14.01,2013-12-27 20:30:00,
2013-12-27 14:34:00,48.2,15.8,29.29,South,175,2.7,4.0,27,0.00,,,0.00,VWS V14.01,2013-12-27 20:34:00,
2013-12-27 14:39:00,48.7,16.3,29.29,SSW,197,3.6,3.6,27,0.00,,,0.00,VWS V14.01,2013-12-27 20:39:00,
2013-12-27 14:44:00,48.7,16.3,29.29,South,185,4.0,6.3,27,0.00,,,0.00,VWS V14.01,2013-12-27 20:44:00,
2013-12-27 14:49:00,48.7,16.3,29.29,SSW,192,3.6,8.1,27,0.00,,,0.00,VWS V14.01,2013-12-27 20:49:00,
2013-12-27 14:54:00,48.6,16.1,29.29,South,183,4.0,5.8,27,0.00,,,0.00,VWS V14.01,2013-12-27 20:54:00,
2013-12-27 14:59:00,48.6,16.1,29.29,South,174,6.3,6.3,27,0.00,,,0.00,VWS V14.01,2013-12-27 20:59:00,
2013-12-27 15:04:00,48.4,16.0,29.29,SSW,209,3.6,5.8,27,0.00,,,0.00,VWS V14.01,2013-12-27 21:04:00,
2013-12-27 15:09:00,48.0,15.6,29.29,SSW,193,5.4,6.3,27,0.00,,,0.00,VWS V14.01,2013-12-27 21:09:00,
2013-12-27 15:14:00,48.0,15.6,29.29,SSW,209,4.0,5.4,27,0.00,,,0.00,VWS V14.01,2013-12-27 21:14:00,
2013-12-27 15:19:00,47.7,15.3,29.29,South,180,5.4,6.3,27,0.00,,,0.00,VWS V14.01,2013-12-27 21:19:00,
2013-12-27 15:24:00,47.5,15.2,29.29,SE,138,3.1,5.8,27,0.00,,,0.00,VWS V14.01,2013-12-27 21:24:00,
2013-12-27 15:29:00,47.5,15.2,29.29,SSW,193,6.7,7.2,27,0.00,,,0.00,VWS V14.01,2013-12-27 21:29:00,
2013-12-27 15:34:00,47.1,14.9,29.29,South,184,4.9,6.7,27,0.00,,,0.00,VWS V14.01,2013-12-27 21:34:00,
2013-12-27 15:39:00,47.1,14.9,29.29,SW,222,2.7,4.9,27,0.00,,,0.00,VWS V14.01,2013-12-27 21:39:00,
2013-12-27 15:44:00,46.9,14.7,29.29,South,184,2.7,5.8,27,0.00,,,0.00,VWS V14.01,2013-12-27 21:44:00,
2013-12-27 15:49:00,46.8,14.6,29.26,South,187,5.8,5.8,27,0.00,,,0.00,VWS V14.01,2013-12-27 21:49:00,
2013-12-27 15:54:00,46.8,14.6,29.26,South,179,5.4,8.3,27,0.00,,,0.00,VWS V14.01,2013-12-27 21:54:00,
2013-12-27 15:59:00,46.6,14.4,29.26,SW,218,5.4,8.1,27,0.00,,,0.00,VWS V14.01,2013-12-27 21:59:00,
2013-12-27 16:04:00,46.4,14.2,29.26,South,183,3.6,5.4,27,0.00,,,0.00,VWS V14.01,2013-12-27 22:04:00,
2013-12-27 16:09:00,46.4,14.2,29.26,SSW,206,4.0,5.8,27,0.00,,,0.00,VWS V14.01,2013-12-27 22:09:00,
2013-12-27 16:14:00,46.0,14.8,29.26,West,270,5.8,5.8,28,0.00,,,0.00,VWS V14.01,2013-12-27 22:14:00,
2013-12-27 16:19:00,45.7,14.5,29.26,SSW,201,3.1,6.3,28,0.00,,,0.00,VWS V14.01,2013-12-27 22:19:00,
2013-12-27 16:24:00,45.7,14.5,29.26,South,176,4.0,5.8,28,0.00,,,0.00,VWS V14.01,2013-12-27 22:24:00,
2013-12-27 16:29:00,45.3,14.1,29.26,SSW,196,3.1,6.3,28,0.00,,,0.00,VWS V14.01,2013-12-27 22:29:00,
2013-12-27 16:34:00,45.0,13.8,29.26,SSW,213,6.3,6.3,28,0.00,,,0.00,VWS V14.01,2013-12-27 22:34:00,
2013-12-27 16:39:00,44.8,13.7,29.26,SSW,206,0.0,3.1,28,0.00,,,0.00,VWS V14.01,2013-12-27 22:39:00,
2013-12-27 16:44:00,44.8,13.7,29.26,South,177,2.7,6.3,28,0.00,,,0.00,VWS V14.01,2013-12-27 22:44:00,
2013-12-27 16:49:00,44.4,13.4,29.26,SW,235,2.2,5.4,28,0.00,,,0.00,VWS V14.01,2013-12-27 22:49:00,
2013-12-27 16:54:00,44.1,13.9,29.29,SSW,196,4.9,4.9,29,0.00,,,0.00,VWS V14.01,2013-12-27 22:54:00,
2013-12-27 16:59:00,44.1,13.9,29.29,SSW,213,3.6,4.9,29,0.00,,,0.00,VWS V14.01,2013-12-27 22:59:00,
2013-12-27 17:04:00,43.9,13.7,29.29,South,185,2.7,4.0,29,0.00,,,0.00,VWS V14.01,2013-12-27 23:04:00,
2013-12-27 17:09:00,43.9,13.7,29.29,SW,220,2.2,4.9,29,0.00,,,0.00,VWS V14.01,2013-12-27 23:09:00,
2013-12-27 17:14:00,43.5,13.4,29.29,South,180,3.6,4.5,29,0.00,,,0.00,VWS V14.01,2013-12-27 23:14:00,
2013-12-27 17:19:00,43.5,13.4,29.29,SSW,195,6.3,6.3,29,0.00,,,0.00,VWS V14.01,2013-12-27 23:19:00,
2013-12-27 17:24:00,43.5,13.4,29.29,South,178,5.8,6.3,29,0.00,,,0.00,VWS V14.01,2013-12-27 23:24:00,
2013-12-27 17:29:00,43.5,13.4,29.29,South,181,3.1,5.8,29,0.00,,,0.00,VWS V14.01,2013-12-27 23:29:00,
2013-12-27 17:34:00,43.3,13.2,29.29,SSW,194,2.7,3.6,29,0.00,,,0.00,VWS V14.01,2013-12-27 23:34:00,
2013-12-27 17:39:00,43.3,13.2,29.29,West,266,5.8,5.8,29,0.00,,,0.00,VWS V14.01,2013-12-27 23:39:00,
2013-12-27 17:44:00,43.3,13.2,29.29,SSW,197,3.6,4.9,29,0.00,,,0.00,VWS V14.01,2013-12-27 23:44:00,
2013-12-27 17:49:00,43.2,13.1,29.29,SSW,206,4.9,4.9,29,0.00,,,0.00,VWS V14.01,2013-12-27 23:49:00,
2013-12-27 17:54:00,43.0,12.9,29.29,South,190,4.0,4.9,29,0.00,,,0.00,VWS V14.01,2013-12-27 23:54:00,
2013-12-27 17:59:00,42.8,12.8,29.29,SSW,195,3.1,5.4,29,0.00,,,0.00,VWS V14.01,2013-12-27 23:59:00,
2013-12-27 18:04:00,42.8,12.8,29.29,South,184,4.0,4.0,29,0.00,,,0.00,VWS V14.01,2013-12-28 00:04:00,
2013-12-27 18:09:00,42.8,12.8,29.29,SSW,207,2.7,4.9,29,0.00,,,0.00,VWS V14.01,2013-12-28 00:09:00,
2013-12-27 18:14:00,42.4,12.4,29.29,South,189,2.7,2.7,29,0.00,,,0.00,VWS V14.01,2013-12-28 00:14:00,
2013-12-27 18:19:00,42.4,12.4,29.29,South,184,3.6,3.6,29,0.00,,,0.00,VWS V14.01,2013-12-28 00:19:00,
2013-12-27 18:24:00,42.4,12.4,29.29,SSW,208,3.6,3.6,29,0.00,,,0.00,VWS V14.01,2013-12-28 00:24:00,
2013-12-27 18:29:00,42.4,12.4,29.29,South,191,3.6,7.6,29,0.00,,,0.00,VWS V14.01,2013-12-28 00:29:00,
2013-12-27 18:34:00,42.4,12.4,29.29,SSE,163,4.0,4.0,29,0.00,,,0.00,VWS V14.01,2013-12-28 00:34:00,
2013-12-27 18:39:00,42.4,12.4,29.29,South,190,3.1,4.0,29,0.00,,,0.00,VWS V14.01,2013-12-28 00:39:00,
2013-12-27 18:44:00,42.4,12.4,29.29,South,174,5.4,5.4,29,0.00,,,0.00,VWS V14.01,2013-12-28 00:44:00,
2013-12-27 18:49:00,42.3,12.3,29.29,SSE,152,3.1,5.4,29,0.00,,,0.00,VWS V14.01,2013-12-28 00:49:00,
2013-12-27 18:54:00,42.3,12.3,29.29,SSE,166,5.4,5.8,29,0.00,,,0.00,VWS V14.01,2013-12-28 00:54:00,
2013-12-27 18:59:00,42.3,12.3,29.29,SSE,166,5.4,5.4,29,0.00,,,0.00,VWS V14.01,2013-12-28 00:59:00,
2013-12-27 19:04:00,42.1,12.9,29.29,South,175,3.6,3.6,30,0.00,,,0.00,VWS V14.01,2013-12-28 01:04:00,
2013-12-27 19:06:00,42.1,12.9,29.29,South,175,3.6,3.6,30,0.00,,,0.00,VWS V14.01,2013-12-28 01:06:00,
2013-12-27 19:11:00,42.1,12.9,29.29,South,186,5.4,5.4,30,0.00,,,0.00,VWS V14.01,2013-12-28 01:11:00,
2013-12-27 19:16:00,42.1,12.9,29.29,South,175,4.0,4.0,30,0.00,,,0.00,VWS V14.01,2013-12-28 01:16:00,
2013-12-27 19:21:00,42.1,12.9,29.29,South,173,4.0,4.0,30,0.00,,,0.00,VWS V14.01,2013-12-28 01:21:00,
2013-12-27 19:26:00,42.1,12.9,29.29,SSW,198,3.6,3.6,30,0.00,,,0.00,VWS V14.01,2013-12-28 01:26:00,
2013-12-27 19:31:00,42.1,12.9,29.29,South,188,3.1,3.6,30,0.00,,,0.00,VWS V14.01,2013-12-28 01:31:00,
2013-12-27 19:36:00,42.1,12.9,29.29,SSW,193,3.1,3.1,30,0.00,,,0.00,VWS V14.01,2013-12-28 01:36:00,
2013-12-27 19:41:00,41.9,12.7,29.29,South,182,3.6,4.0,30,0.00,,,0.00,VWS V14.01,2013-12-28 01:41:00,
2013-12-27 19:46:00,41.5,12.4,29.29,SSW,210,4.0,4.0,30,0.00,,,0.00,VWS V14.01,2013-12-28 01:46:00,
2013-12-27 19:51:00,41.5,12.4,29.29,South,175,3.1,4.0,30,0.00,,,0.00,VWS V14.01,2013-12-28 01:51:00,
2013-12-27 19:56:00,41.2,12.1,29.29,South,176,3.1,3.1,30,0.00,,,0.00,VWS V14.01,2013-12-28 01:56:00,
2013-12-27 20:01:00,41.2,12.1,29.29,SSE,151,3.1,3.1,30,0.00,,,0.00,VWS V14.01,2013-12-28 02:01:00,
2013-12-27 20:06:00,40.8,11.8,29.29,South,183,0.0,3.1,30,0.00,,,0.00,VWS V14.01,2013-12-28 02:06:00,
2013-12-27 20:11:00,40.8,12.5,29.29,South,183,0.0,0.0,31,0.00,,,0.00,VWS V14.01,2013-12-28 02:11:00,
2013-12-27 20:16:00,40.8,12.5,29.29,South,183,2.2,2.2,31,0.00,,,0.00,VWS V14.01,2013-12-28 02:16:00,
2013-12-27 20:21:00,40.6,12.4,29.29,South,173,3.1,4.0,31,0.00,,,0.00,VWS V14.01,2013-12-28 02:21:00,
2013-12-27 20:26:00,40.6,12.4,29.29,SSE,162,2.7,4.0,31,0.00,,,0.00,VWS V14.01,2013-12-28 02:26:00,
2013-12-27 20:31:00,40.6,12.4,29.29,SSE,162,2.7,2.7,31,0.00,,,0.00,VWS V14.01,2013-12-28 02:31:00,
2013-12-27 20:36:00,40.5,12.2,29.29,South,182,4.0,4.0,31,0.00,,,0.00,VWS V14.01,2013-12-28 02:36:00,
2013-12-27 20:41:00,40.5,12.2,29.29,South,182,4.0,4.0,31,0.00,,,0.00,VWS V14.01,2013-12-28 02:41:00,
2013-12-27 20:46:00,40.5,12.2,29.29,South,173,2.7,4.0,31,0.00,,,0.00,VWS V14.01,2013-12-28 02:46:00,
2013-12-27 20:51:00,39.9,11.8,29.29,South,173,2.7,2.7,31,0.00,,,0.00,VWS V14.01,2013-12-28 02:51:00,
2013-12-27 20:56:00,39.9,12.5,29.29,SSE,164,2.7,3.1,32,0.00,,,0.00,VWS V14.01,2013-12-28 02:56:00,
2013-12-27 21:01:00,39.9,12.5,29.29,West,261,3.1,3.1,32,0.00,,,0.00,VWS V14.01,2013-12-28 03:01:00,
2013-12-27 21:06:00,39.9,12.5,29.29,South,183,2.2,4.9,32,0.00,,,0.00,VWS V14.01,2013-12-28 03:06:00,
2013-12-27 21:11:00,39.9,12.5,29.29,South,179,2.7,2.7,32,0.00,,,0.00,VWS V14.01,2013-12-28 03:11:00,
2013-12-27 21:16:00,39.7,12.3,29.29,South,184,3.1,3.6,32,0.00,,,0.00,VWS V14.01,2013-12-28 03:16:00,
2013-12-27 21:21:00,39.7,12.3,29.29,South,179,3.6,3.6,32,0.00,,,0.00,VWS V14.01,2013-12-28 03:21:00,
2013-12-27 21:26:00,39.7,12.3,29.29,South,181,2.7,3.6,32,0.00,,,0.00,VWS V14.01,2013-12-28 03:26:00,
2013-12-27 21:31:00,39.7,12.3,29.29,South,171,2.7,3.6,32,0.00,,,0.00,VWS V14.01,2013-12-28 03:31:00,
2013-12-27 21:36:00,39.4,12.0,29.29,South,189,3.1,4.0,32,0.00,,,0.00,VWS V14.01,2013-12-28 03:36:00,
2013-12-27 21:41:00,39.4,12.7,29.29,South,189,3.1,3.1,33,0.00,,,0.00,VWS V14.01,2013-12-28 03:41:00,
2013-12-27 21:46:00,39.4,12.7,29.29,South,182,3.1,3.1,33,0.00,,,0.00,VWS V14.01,2013-12-28 03:46:00,
2013-12-27 21:51:00,39.4,12.7,29.29,South,182,3.1,3.1,33,0.00,,,0.00,VWS V14.01,2013-12-28 03:51:00,
2013-12-27 21:56:00,39.4,12.7,29.29,South,171,3.6,3.6,33,0.00,,,0.00,VWS V14.01,2013-12-28 03:56:00,
2013-12-27 22:01:00,39.4,12.7,29.29,South,169,0.0,3.6,33,0.00,,,0.00,VWS V14.01,2013-12-28 04:01:00,
2013-12-27 22:06:00,39.4,12.7,29.29,South,169,0.0,0.0,33,0.00,,,0.00,VWS V14.01,2013-12-28 04:06:00,
2013-12-27 22:11:00,39.2,12.5,29.29,South,176,3.1,3.6,33,0.00,,,0.00,VWS V14.01,2013-12-28 04:11:00,
2013-12-27 22:16:00,39.4,12.7,29.29,South,190,0.0,3.1,33,0.00,,,0.00,VWS V14.01,2013-12-28 04:16:00,
2013-12-27 22:21:00,39.4,12.7,29.29,South,177,0.0,0.0,33,0.00,,,0.00,VWS V14.01,2013-12-28 04:21:00,
2013-12-27 22:26:00,39.0,12.4,29.29,South,175,0.0,0.0,33,0.00,,,0.00,VWS V14.01,2013-12-28 04:26:00,
2013-12-27 22:31:00,39.0,12.4,29.29,South,175,0.0,2.2,33,0.00,,,0.00,VWS V14.01,2013-12-28 04:31:00,
2013-12-27 22:36:00,38.8,12.2,29.29,South,177,4.9,4.9,33,0.00,,,0.00,VWS V14.01,2013-12-28 04:36:00,
2013-12-27 22:41:00,38.8,12.2,29.29,South,181,0.0,4.9,33,0.00,,,0.00,VWS V14.01,2013-12-28 04:41:00,
2013-12-27 22:46:00,38.7,12.1,29.29,South,181,0.0,2.7,33,0.00,,,0.00,VWS V14.01,2013-12-28 04:46:00,
2013-12-27 22:51:00,38.7,12.7,29.29,SSE,163,2.7,2.7,34,0.00,,,0.00,VWS V14.01,2013-12-28 04:51:00,
2013-12-27 22:56:00,38.7,12.7,29.29,SSE,162,2.7,2.7,34,0.00,,,0.00,VWS V14.01,2013-12-28 04:56:00,
2013-12-27 23:00:00,38.5,12.6,29.29,SSE,163,3.6,3.6,34,0.00,,,0.00,VWS V14.01,2013-12-28 05:00:00,
2013-12-27 23:01:00,38.5,12.6,29.29,SSE,163,3.6,3.6,34,0.00,,,0.00,VWS V14.01,2013-12-28 05:01:00,
2013-12-27 23:06:00,38.5,12.6,29.29,SSE,163,0.0,2.2,34,0.00,,,0.00,VWS V14.01,2013-12-28 05:06:00,
2013-12-27 23:11:00,38.3,12.4,29.29,SSE,162,2.7,2.7,34,0.00,,,0.00,VWS V14.01,2013-12-28 05:11:00,
2013-12-27 23:16:00,38.3,12.4,29.29,SSE,162,3.6,3.6,34,0.00,,,0.00,VWS V14.01,2013-12-28 05:16:00,
2013-12-27 23:21:00,38.3,12.4,29.29,SSE,162,2.7,2.7,34,0.00,,,0.00,VWS V14.01,2013-12-28 05:21:00,
2013-12-27 23:26:00,38.3,12.4,29.29,SSE,162,0.0,2.7,34,0.00,,,0.00,VWS V14.01,2013-12-28 05:26:00,
2013-12-27 23:31:00,38.3,12.4,29.29,SSE,162,0.0,0.0,34,0.00,,,0.00,VWS V14.01,2013-12-28 05:31:00,
2013-12-27 23:36:00,38.5,12.6,29.29,SSE,163,3.6,3.6,34,0.00,,,0.00,VWS V14.01,2013-12-28 05:36:00,
2013-12-27 23:41:00,38.3,12.4,29.29,SSE,163,0.0,3.6,34,0.00,,,0.00,VWS V14.01,2013-12-28 05:41:00,
2013-12-27 23:46:00,37.9,12.1,29.29,SSE,163,3.1,3.1,34,0.00,,,0.00,VWS V14.01,2013-12-28 05:46:00,
2013-12-27 23:51:00,37.8,11.9,29.29,SSE,163,0.0,0.0,34,0.00,,,0.00,VWS V14.01,2013-12-28 05:51:00,
2013-12-27 23:56:00,37.8,11.9,29.29,SSE,163,0.0,0.0,34,0.00,,,0.00,VWS V14.01,2013-12-28 05:56:00,